Historyczne dane pomiarowe

Dodano dane terminowe – wersja testowa.

Dane z okresu 1951-2019

Wersja bazy: 1.34 [2019-03-16, lista zmian], aktualizacja planowana na 2019-04-15

Dane meteo z obszaru Polski uzyskane na podstawie danych udostępnionych przez Instytut Meteorologii i Gospodarki Wodnej – Państwowy Instytut Badawczy.

 

Wybierz Datę:    

       

TemperaturaWilgotnośćWiatrCiśnienieOpadyŚniegCzas trwania zjawisk
 Stacja t tx tn tng RH VA  wxwx mslp ppp RRR   cm mm wxwxwxwxwxwxwx
2019-06-19 23.0 30.3 15.8 13.2-------- 0.0------------
2019-06-18 19.3 26.3 10.2 7.9-------- 0.0------------
2019-06-17 19.0 24.7 11.5 9.2-------- 0.0------------
2019-06-16 22.5 27.3 18.1 16.3-------- 0.0------------
2019-06-15 24.7 29.7 18.4 16.3-------- 0.0------------
2019-06-14 22.2 27.5 16.1 14.9-------- 0.0------------
2019-06-13 24.1 31.3 19.8 16.5-------- 26.1------------
2019-06-12 26.8 33.3 18.4 15.2-------- 0.0------------
2019-06-11 26.6 33.8 18.4 15.5-------- 0.0------------
2019-06-10 23.7 31.3 14.3 11.5-------- 0.0------------
2019-06-09 18.4 26.8 8.0 5.0-------- 0.0------------
2019-06-08 20.3 27.4 13.9 11.2-------- 0.0------------
2019-06-07 20.6 25.7 14.4 11.5-------- 0.0------------
2019-06-06 22.9 29.5 16.1 13.6-------- 0.0------------
2019-06-05 22.8 29.2 15.2 13.1-------- 0.0------------
2019-06-04 22.3 30.2 13.1 9.7-------- 0.0------------
2019-06-03 21.4 28.2 12.1 9.6-------- 0.0------------
2019-06-02 20.4 27.1 12.3 9.9-------- 0.0------------
2019-06-01 18.4 24.3 12.0 9.5-------- 0.0------------
2019-05-31 15.9 24.4 4.1 2.4-------- 0.0------------
2019-05-30 12.6 18.8 4.0 1.8-------- 0.0------------
2019-05-29 12.8 16.6 10.2 9.7-------- 0.5------------
2019-05-28 17.5 22.0 15.2 14.7-------- 10.3------------
2019-05-27 19.0 25.7 11.4 8.2-------- 3.6------------
2019-05-26 15.3 21.8 7.3 4.4-------- 0.0------------
2019-05-25 15.2 22.5 5.8 3.2-------- 0.0------------
2019-05-24 15.1 19.9 11.2 10.7-------- 0.0------------
2019-05-23 14.0 16.6 12.7 12.7-------- 0.1------------
2019-05-22 15.2 19.6 11.0 8.6-------- 3.3------------
2019-05-21 16.7 22.0 11.9 8.8-------- 5.1------------
2019-05-20 18.3 24.9 11.5 8.8-------- 0.0------------
2019-05-19 18.1 25.2 10.8 8.3-------- 0.0------------
2019-05-18 17.6 23.7 10.5 8.7-------- 0.0------------
2019-05-17 14.3 18.8 9.4 7.3-------- 0.5------------
2019-05-16 11.3 13.3 9.0 8.9-------- 0.0------------
2019-05-15 8.8 10.7 6.5 6.2-------- 3.8------------
2019-05-14 5.9 9.8 0.5 -2.7-------- 4.0------------
2019-05-13 8.7 11.2 6.1 5.8-------- 0.0------------
2019-05-12 11.0 16.0 7.8 7.7-------- 0.4------------
2019-05-11 13.5 18.9 7.8 4.8-------- 0.0------------
2019-05-10 13.0 19.8 9.0 7.8-------- 1.8------------
2019-05-09 9.9 12.7 7.7 5.3-------- 2.0------------
2019-05-08 8.5 15.8 -0.5 -3.5-------- 0.0------------
2019-05-07 7.1 12.7 0.1 -3.0-------- 0.0------------
2019-05-06 6.8 13.7 -0.3 -2.2-------- 0.0------------
2019-05-05 6.7 10.7 2.5 2.1-------- 0.0------------
2019-05-04 8.5 14.1 3.0 -0.1-------- 2.8------------
2019-05-03 9.1 13.0 6.5 3.2-------- 0.0------------
2019-05-02 10.4 15.4 6.9 4.7-------- 0.0------------
2019-05-01 11.0 18.2 3.7 1.0-------- 0.0------------
2019-04-30 12.5 18.9 6.8 4.1-------- 0.0------------
2019-04-29 12.3 18.5 9.3 9.0-------- 16.4------------
2019-04-28 9.7 13.1 6.0 2.1-------- 13.9------------
2019-04-27 14.1 21.1 11.2 10.2-------- 0.0------------
2019-04-26 18.6 27.9 9.8 5.7-------- 0.0------------
2019-04-25 19.0 25.7 13.1 10.2-------- 0.0------------
2019-04-24 14.8 21.3 9.8 5.8-------- 0.0------------
2019-04-23 13.2 18.9 8.0 4.7-------- 0.0------------
2019-04-22 10.0 17.8 2.0 -1.4-------- 0.0------------
2019-04-21 11.0 19.3 1.2 -3.2-------- 0.0------------
149.2 ms

 

Źródłem pochodzenia danych jest Instytut Meteorologii i Gospodarki Wodnej – Państwowy Instytut Badawczy. Dane Instytutu Meteorologii i Gospodarki Wodnej – Państwowego Instytutu Badawczego zostały przetworzone.

Dane źródłowe można odnaleźć na stronie https://dane.imgw.pl